Time;durP1;ratioP1;P1;durP2;ratioP2;P2;SDS_P1;SDS_P2;PMS_P1;PMS_P2;Temp;Humidity;BMP_temperature;BMP_pressure;BME280_temperature;BME280_humidity;BME280_pressure;Samples;Min_cycle;Max_cycle;Signal;HPM_P1;HPM_P2
2022/01/05 00:01:41;;;;;;;;;;;4.80;99.90;;;;;;5043184;28;20592;-61
2022/01/05 00:04:06;;;;;;;;;;;4.80;99.90;;;;;;5056756;28;19923;-61
2022/01/05 00:06:32;;;;;;;;;;;4.70;99.90;;;;;;5058814;28;19913;-61
2022/01/05 00:08:58;;;;;;;;;;;4.60;99.90;;;;;;5057533;28;19993;-60
2022/01/05 00:11:23;;;;;;;;;;;4.60;99.90;;;;;;5057069;28;19920;-61
2022/01/05 00:13:49;;;;;;;;;;;4.40;99.90;;;;;;5058184;28;19967;-61
2022/01/05 00:16:14;;;;;;;;;;;4.50;99.90;;;;;;5057332;28;19921;-61
2022/01/05 00:18:40;;;;;;;;;;;4.70;99.90;;;;;;5054915;28;19927;-61
2022/01/05 00:21:05;;;;;;;;;;;4.90;99.90;;;;;;5058077;28;19912;-61
2022/01/05 00:23:31;;;;;;;;;;;5.10;99.90;;;;;;5058187;28;19961;-61
2022/01/05 00:25:56;;;;;;;;;;;5.20;99.90;;;;;;5056026;28;19916;-61
2022/01/05 00:28:22;;;;;;;;;;;5.20;99.90;;;;;;5057327;28;20330;-61
2022/01/05 00:30:47;;;;;;;;;;;5.00;99.90;;;;;;5058206;28;20532;-61
2022/01/05 00:33:14;;;;;;;;;;;5.00;99.90;;;;;;5057436;28;19916;-61
2022/01/05 00:35:40;;;;;;;;;;;5.10;99.90;;;;;;5055835;28;20040;-62
2022/01/05 00:38:06;;;;;;;;;;;5.20;99.90;;;;;;5055484;28;19995;-61
2022/01/05 00:40:31;;;;;;;;;;;5.10;99.90;;;;;;5058055;28;20464;-61
2022/01/05 00:42:57;;;;;;;;;;;5.20;99.90;;;;;;5057502;28;19916;-61
2022/01/05 00:45:22;;;;;;;;;;;5.20;99.90;;;;;;5055764;28;19978;-61
2022/01/05 00:47:48;;;;;;;;;;;5.20;99.90;;;;;;5054809;28;19923;-61
2022/01/05 00:50:13;;;;;;;;;;;5.30;99.90;;;;;;5056602;28;19931;-62
2022/01/05 00:52:39;;;;;;;;;;;5.40;99.90;;;;;;5045377;28;19916;-61
2022/01/05 00:55:04;;;;;;;;;;;5.20;99.90;;;;;;5056762;28;19923;-61
2022/01/05 00:57:30;;;;;;;;;;;5.20;99.90;;;;;;5057724;28;19920;-61
2022/01/05 00:59:56;;;;;;;;;;;5.10;99.90;;;;;;5056905;28;20519;-61
2022/01/05 01:02:21;;;;;;;;;;;5.10;99.90;;;;;;5057144;28;19966;-61
2022/01/05 01:04:46;;;;;;;;;;;5.10;99.90;;;;;;5056257;28;19935;-61
2022/01/05 01:07:12;;;;;;;;;;;5.10;99.90;;;;;;5045210;28;20348;-61
2022/01/05 01:09:37;;;;;;;;;;;5.10;99.90;;;;;;5055257;28;19913;-61
2022/01/05 01:12:03;;;;;;;;;;;5.00;99.90;;;;;;5057342;28;19928;-62
2022/01/05 01:14:29;;;;;;;;;;;5.10;99.90;;;;;;5057945;28;19917;-61
2022/01/05 01:16:54;;;;;;;;;;;5.20;99.90;;;;;;5057913;28;19923;-61
2022/01/05 01:19:20;;;;;;;;;;;5.20;99.90;;;;;;5055599;28;20326;-61
2022/01/05 01:21:45;;;;;;;;;;;5.30;99.90;;;;;;5055844;28;19917;-62
2022/01/05 01:24:11;;;;;;;;;;;5.20;99.90;;;;;;5053186;28;19947;-62
2022/01/05 01:26:36;;;;;;;;;;;5.10;99.90;;;;;;5056374;28;20353;-61
2022/01/05 01:29:02;;;;;;;;;;;5.20;99.90;;;;;;5057717;28;19912;-61
2022/01/05 01:31:28;;;;;;;;;;;5.00;99.90;;;;;;5056617;28;20347;-62
2022/01/05 01:33:54;;;;;;;;;;;5.10;99.90;;;;;;5056812;28;20006;-62
2022/01/05 01:36:20;;;;;;;;;;;5.00;99.90;;;;;;5057180;28;19920;-62
2022/01/05 01:38:45;;;;;;;;;;;5.00;99.90;;;;;;5055079;28;20314;-62
2022/01/05 01:41:11;;;;;;;;;;;5.10;99.90;;;;;;5044369;28;19912;-61
2022/01/05 01:43:37;;;;;;;;;;;4.90;99.90;;;;;;5056881;28;19951;-61
2022/01/05 01:46:04;;;;;;;;;;;4.90;99.90;;;;;;5057475;28;19971;-62
2022/01/05 01:48:29;;;;;;;;;;;4.90;99.90;;;;;;5055696;28;19920;-62
2022/01/05 01:50:55;;;;;;;;;;;4.80;99.90;;;;;;5056205;28;19920;-63
2022/01/05 01:53:20;;;;;;;;;;;4.80;99.90;;;;;;5057101;28;19939;-62
2022/01/05 01:55:47;;;;;;;;;;;4.90;99.90;;;;;;5055969;28;19952;-61
2022/01/05 01:58:12;;;;;;;;;;;4.90;99.90;;;;;;5045415;28;19935;-62
2022/01/05 02:00:38;;;;;;;;;;;4.90;99.90;;;;;;5057327;28;20474;-62
2022/01/05 02:03:04;;;;;;;;;;;4.70;99.90;;;;;;5055963;28;19916;-62
2022/01/05 02:05:29;;;;;;;;;;;4.70;99.90;;;;;;5056214;28;19978;-62
2022/01/05 02:07:55;;;;;;;;;;;4.60;99.90;;;;;;5054565;28;19966;-61
2022/01/05 02:10:20;;;;;;;;;;;4.60;99.90;;;;;;5057360;28;19920;-61
2022/01/05 02:12:47;;;;;;;;;;;4.60;99.90;;;;;;5055360;28;19923;-62
2022/01/05 02:15:12;;;;;;;;;;;4.60;99.90;;;;;;5041271;28;19917;-62
2022/01/05 02:17:52;;;;;;;;;;;4.50;99.90;;;;;;5056100;28;19919;-62
2022/01/05 02:20:19;;;;;;;;;;;4.40;99.90;;;;;;5058958;28;20303;-62
2022/01/05 02:22:45;;;;;;;;;;;4.40;99.90;;;;;;5059660;28;20402;-61
2022/01/05 02:25:11;;;;;;;;;;;4.50;99.90;;;;;;5060277;28;19920;-62
2022/01/05 02:27:40;;;;;;;;;;;4.40;99.90;;;;;;5059062;28;19920;-61
2022/01/05 02:30:07;;;;;;;;;;;4.30;99.90;;;;;;5059860;28;19952;-61
2022/01/05 02:32:32;;;;;;;;;;;4.30;99.90;;;;;;5059315;28;19923;-61
2022/01/05 02:34:57;;;;;;;;;;;4.30;99.90;;;;;;5060513;28;19943;-61
2022/01/05 02:37:23;;;;;;;;;;;4.20;99.90;;;;;;5059668;28;19925;-62
2022/01/05 02:39:48;;;;;;;;;;;4.20;99.90;;;;;;5046203;28;19951;-62
2022/01/05 02:42:28;;;;;;;;;;;4.30;99.90;;;;;;5056020;28;20567;-62
2022/01/05 02:44:54;;;;;;;;;;;4.10;99.90;;;;;;5059224;28;20071;-61
2022/01/05 02:47:19;;;;;;;;;;;4.10;99.90;;;;;;5058610;28;19920;-61
2022/01/05 02:49:45;;;;;;;;;;;4.20;99.90;;;;;;5056831;28;19916;-61
2022/01/05 02:52:10;;;;;;;;;;;4.20;99.90;;;;;;5059367;28;20367;-62
2022/01/05 02:54:36;;;;;;;;;;;4.10;99.90;;;;;;5044942;28;19921;-61
2022/01/05 02:57:02;;;;;;;;;;;3.90;99.90;;;;;;5047995;28;19921;-61
2022/01/05 02:59:28;;;;;;;;;;;3.90;99.90;;;;;;5059367;28;19921;-62
2022/01/05 03:01:54;;;;;;;;;;;3.90;99.90;;;;;;5057042;28;19923;-62
2022/01/05 03:04:19;;;;;;;;;;;4.10;99.90;;;;;;5059401;28;19912;-61
2022/01/05 03:06:45;;;;;;;;;;;4.00;99.90;;;;;;5044500;28;19913;-61
2022/01/05 03:09:10;;;;;;;;;;;3.90;99.90;;;;;;5059656;28;20318;-62
2022/01/05 03:11:36;;;;;;;;;;;3.80;99.90;;;;;;5059125;28;19921;-62
2022/01/05 03:14:01;;;;;;;;;;;4.00;99.90;;;;;;5046911;28;19939;-61
2022/01/05 03:16:26;;;;;;;;;;;3.80;99.90;;;;;;5061005;28;20040;-61
2022/01/05 03:18:52;;;;;;;;;;;3.90;99.90;;;;;;5058394;28;19931;-61
2022/01/05 03:21:17;;;;;;;;;;;3.70;99.90;;;;;;5058412;28;19917;-62
2022/01/05 03:23:46;;;;;;;;;;;3.70;99.90;;;;;;5057811;28;19938;-61
2022/01/05 03:26:12;;;;;;;;;;;3.60;99.90;;;;;;5057785;28;20070;-61
2022/01/05 03:28:37;;;;;;;;;;;3.60;99.90;;;;;;5058397;28;20010;-61
2022/01/05 03:31:03;;;;;;;;;;;3.60;99.90;;;;;;5058946;28;19924;-62
2022/01/05 03:33:28;;;;;;;;;;;3.70;99.90;;;;;;5057339;28;19929;-61
2022/01/05 03:35:54;;;;;;;;;;;3.80;99.90;;;;;;5058772;28;19913;-61
2022/01/05 03:38:19;;;;;;;;;;;3.80;99.90;;;;;;5049140;28;19916;-61
2022/01/05 03:40:45;;;;;;;;;;;3.80;99.90;;;;;;5057588;28;19928;-62
2022/01/05 03:43:12;;;;;;;;;;;3.80;99.90;;;;;;5056713;28;20311;-62
2022/01/05 03:45:37;;;;;;;;;;;3.80;99.90;;;;;;5057927;28;19974;-61
2022/01/05 03:48:07;;;;;;;;;;;3.80;99.90;;;;;;5058402;28;20145;-62
2022/01/05 03:50:32;;;;;;;;;;;3.70;99.90;;;;;;5058332;28;19924;-62
2022/01/05 03:52:58;;;;;;;;;;;3.70;99.90;;;;;;5053901;28;19924;-61
2022/01/05 03:55:23;;;;;;;;;;;3.50;99.90;;;;;;5057080;28;19963;-61
2022/01/05 03:57:49;;;;;;;;;;;3.60;99.90;;;;;;5057987;28;20284;-61
2022/01/05 04:00:14;;;;;;;;;;;3.60;99.90;;;;;;5058627;28;19912;-62
2022/01/05 04:02:40;;;;;;;;;;;3.40;99.90;;;;;;5058601;28;20352;-62
2022/01/05 04:05:06;;;;;;;;;;;3.60;99.90;;;;;;5057903;28;20007;-62
2022/01/05 04:07:31;;;;;;;;;;;3.50;99.90;;;;;;5057561;28;19924;-61
2022/01/05 04:09:57;;;;;;;;;;;3.50;99.90;;;;;;5045697;28;19923;-61
2022/01/05 04:12:22;;;;;;;;;;;3.60;99.90;;;;;;5044536;28;19929;-61
2022/01/05 04:14:48;;;;;;;;;;;3.50;99.90;;;;;;5057022;28;20091;-61
2022/01/05 04:17:13;;;;;;;;;;;3.40;99.90;;;;;;5057739;28;19920;-61
2022/01/05 04:19:39;;;;;;;;;;;3.40;99.90;;;;;;5057207;28;20005;-62
2022/01/05 04:22:04;;;;;;;;;;;3.40;99.90;;;;;;5057712;28;19919;-61
2022/01/05 04:24:30;;;;;;;;;;;3.60;99.90;;;;;;5058236;28;19921;-62
2022/01/05 04:26:55;;;;;;;;;;;3.60;99.90;;;;;;5059043;28;20509;-62
2022/01/05 04:29:21;;;;;;;;;;;3.60;99.90;;;;;;5056251;28;20280;-61
2022/01/05 04:31:46;;;;;;;;;;;3.60;99.90;;;;;;5056666;28;20002;-62
2022/01/05 04:34:12;;;;;;;;;;;3.70;99.90;;;;;;5055002;28;20471;-62
2022/01/05 04:36:37;;;;;;;;;;;3.60;99.90;;;;;;5057443;28;20580;-62
2022/01/05 04:39:03;;;;;;;;;;;3.60;99.90;;;;;;5058505;28;19944;-62
2022/01/05 04:41:28;;;;;;;;;;;3.60;99.90;;;;;;5056998;28;19912;-62
2022/01/05 04:43:54;;;;;;;;;;;3.60;99.90;;;;;;5057336;28;19932;-61
2022/01/05 04:46:19;;;;;;;;;;;3.60;99.90;;;;;;5044489;28;19927;-62
2022/01/05 04:48:45;;;;;;;;;;;3.50;99.90;;;;;;5056584;28;20307;-62
2022/01/05 04:51:10;;;;;;;;;;;3.50;99.90;;;;;;5058086;28;19923;-62
2022/01/05 04:53:36;;;;;;;;;;;3.40;99.90;;;;;;5055591;28;19916;-62
2022/01/05 04:56:01;;;;;;;;;;;3.60;99.90;;;;;;5043353;28;20949;-62
2022/01/05 04:58:27;;;;;;;;;;;3.50;99.90;;;;;;5057216;28;19939;-62
2022/01/05 05:00:52;;;;;;;;;;;3.30;99.90;;;;;;5056017;28;20154;-62
2022/01/05 05:03:18;;;;;;;;;;;3.30;99.90;;;;;;5055638;28;20359;-62
2022/01/05 05:05:43;;;;;;;;;;;3.40;99.90;;;;;;5056332;28;19913;-62
2022/01/05 05:08:08;;;;;;;;;;;3.50;99.90;;;;;;5057182;28;19920;-62
2022/01/05 05:10:34;;;;;;;;;;;3.50;99.90;;;;;;5057420;28;20662;-62
2022/01/05 05:13:05;;;;;;;;;;;3.40;99.90;;;;;;5058201;28;20362;-62
2022/01/05 05:15:31;;;;;;;;;;;3.50;99.90;;;;;;5058245;28;20425;-63
2022/01/05 05:17:56;;;;;;;;;;;3.50;99.90;;;;;;5056770;28;19925;-62
2022/01/05 05:20:22;;;;;;;;;;;3.50;99.90;;;;;;5042696;28;19921;-62
2022/01/05 05:22:47;;;;;;;;;;;3.60;99.90;;;;;;5056453;28;20109;-63
2022/01/05 05:25:13;;;;;;;;;;;3.50;99.90;;;;;;5045231;28;19920;-62
2022/01/05 05:27:38;;;;;;;;;;;3.70;99.90;;;;;;5056811;28;20396;-63
2022/01/05 05:30:04;;;;;;;;;;;3.70;99.90;;;;;;5057161;28;19999;-62
2022/01/05 05:32:30;;;;;;;;;;;3.70;99.90;;;;;;5056002;28;20398;-62
2022/01/05 05:34:55;;;;;;;;;;;3.60;99.90;;;;;;5053892;28;19924;-62
2022/01/05 05:37:21;;;;;;;;;;;3.60;99.90;;;;;;5056737;28;20071;-63
2022/01/05 05:39:47;;;;;;;;;;;3.60;99.90;;;;;;5055596;28;19916;-62
2022/01/05 05:42:12;;;;;;;;;;;3.60;99.90;;;;;;5057176;28;19921;-62
2022/01/05 05:44:38;;;;;;;;;;;3.60;99.90;;;;;;5057194;28;19916;-62
2022/01/05 05:47:05;;;;;;;;;;;3.50;99.90;;;;;;5058748;28;20290;-62
2022/01/05 05:49:31;;;;;;;;;;;3.50;99.90;;;;;;5056402;28;20207;-63
2022/01/05 05:51:57;;;;;;;;;;;3.60;99.90;;;;;;5044378;28;20424;-62
2022/01/05 05:54:22;;;;;;;;;;;3.60;99.90;;;;;;5060210;28;19916;-62
2022/01/05 05:56:48;;;;;;;;;;;3.60;99.90;;;;;;5060100;28;20546;-62
2022/01/05 05:59:13;;;;;;;;;;;3.60;99.90;;;;;;5060679;28;20023;-62
2022/01/05 06:01:39;;;;;;;;;;;3.80;99.90;;;;;;5059130;28;19916;-62
2022/01/05 06:04:04;;;;;;;;;;;3.70;99.90;;;;;;5061976;28;19948;-62
2022/01/05 06:06:30;;;;;;;;;;;3.70;99.90;;;;;;5062081;28;19920;-62
2022/01/05 06:08:56;;;;;;;;;;;3.80;99.90;;;;;;5056370;28;19956;-62
2022/01/05 06:11:21;;;;;;;;;;;3.60;99.90;;;;;;5057960;28;19977;-62
2022/01/05 06:13:47;;;;;;;;;;;3.60;99.90;;;;;;5061336;28;19947;-62
2022/01/05 06:16:13;;;;;;;;;;;3.60;99.90;;;;;;5058156;28;19951;-62
2022/01/05 06:18:38;;;;;;;;;;;3.70;99.90;;;;;;5058086;28;20442;-61
2022/01/05 06:21:04;;;;;;;;;;;3.70;99.90;;;;;;5058103;28;19931;-62
2022/01/05 06:23:29;;;;;;;;;;;3.60;99.90;;;;;;5059699;28;19925;-61
2022/01/05 06:25:55;;;;;;;;;;;3.70;99.90;;;;;;5059019;28;20026;-63
2022/01/05 06:28:20;;;;;;;;;;;3.80;99.90;;;;;;5047388;28;19921;-62
2022/01/05 06:30:46;;;;;;;;;;;3.90;99.90;;;;;;5049253;28;19963;-62
2022/01/05 06:33:11;;;;;;;;;;;3.70;99.90;;;;;;5059487;28;20086;-61
2022/01/05 06:35:37;;;;;;;;;;;3.60;99.90;;;;;;5059785;28;19921;-62
2022/01/05 06:38:02;;;;;;;;;;;3.60;99.90;;;;;;5057237;28;19920;-62
2022/01/05 06:40:28;;;;;;;;;;;3.70;99.90;;;;;;5058380;28;19927;-62
2022/01/05 06:42:54;;;;;;;;;;;3.70;99.90;;;;;;5059783;28;19927;-62
2022/01/05 06:45:20;;;;;;;;;;;3.80;99.90;;;;;;5046386;28;20539;-62
2022/01/05 06:47:45;;;;;;;;;;;3.80;99.90;;;;;;5057598;28;19931;-61
2022/01/05 06:50:11;;;;;;;;;;;3.80;99.90;;;;;;5059095;28;20390;-61
2022/01/05 06:52:37;;;;;;;;;;;3.90;99.90;;;;;;5059878;28;19920;-61
2022/01/05 06:55:03;;;;;;;;;;;3.70;99.90;;;;;;5059807;28;19925;-62
2022/01/05 06:57:29;;;;;;;;;;;3.70;99.90;;;;;;5061041;28;19923;-62
2022/01/05 06:59:54;;;;;;;;;;;3.70;99.90;;;;;;5057877;28;19921;-61
2022/01/05 07:02:20;;;;;;;;;;;3.60;99.90;;;;;;5058026;28;20444;-61
2022/01/05 07:04:45;;;;;;;;;;;3.60;99.90;;;;;;5055093;28;20791;-61
2022/01/05 07:07:11;;;;;;;;;;;3.60;99.90;;;;;;5057409;28;19917;-62
2022/01/05 07:09:36;;;;;;;;;;;3.60;99.90;;;;;;5055937;28;19912;-62
2022/01/05 07:12:02;;;;;;;;;;;3.70;99.90;;;;;;5057050;28;20407;-62
2022/01/05 07:14:28;;;;;;;;;;;3.60;99.90;;;;;;5058502;28;20001;-63
2022/01/05 07:16:53;;;;;;;;;;;3.60;99.90;;;;;;5059672;28;20094;-62
2022/01/05 07:19:22;;;;;;;;;;;3.70;99.90;;;;;;5059165;28;20715;-63
2022/01/05 07:21:48;;;;;;;;;;;3.70;99.90;;;;;;5058064;28;20011;-64
2022/01/05 07:24:17;;;;;;;;;;;3.80;99.90;;;;;;5046983;28;20422;-62
2022/01/05 07:26:43;;;;;;;;;;;3.80;99.90;;;;;;5058251;28;19920;-62
2022/01/05 07:29:08;;;;;;;;;;;3.80;99.90;;;;;;5058533;28;19967;-62
2022/01/05 07:31:34;;;;;;;;;;;3.80;99.90;;;;;;5058372;28;19920;-63
2022/01/05 07:33:59;;;;;;;;;;;3.70;99.90;;;;;;5049932;28;20059;-63
2022/01/05 07:36:25;;;;;;;;;;;3.70;99.90;;;;;;5057450;28;19920;-63
2022/01/05 07:38:50;;;;;;;;;;;3.70;99.90;;;;;;5057800;28;19921;-63
2022/01/05 07:41:16;;;;;;;;;;;3.70;99.90;;;;;;5048143;28;20229;-63
2022/01/05 07:43:42;;;;;;;;;;;3.70;99.90;;;;;;5057898;28;20775;-63
2022/01/05 07:46:07;;;;;;;;;;;3.70;99.90;;;;;;5057219;28;19921;-63
2022/01/05 07:48:32;;;;;;;;;;;3.80;99.90;;;;;;5057033;28;20019;-64
2022/01/05 07:50:58;;;;;;;;;;;3.80;99.90;;;;;;5055208;28;19920;-63
2022/01/05 07:53:24;;;;;;;;;;;3.80;99.90;;;;;;5054389;28;20041;-63
2022/01/05 07:55:49;;;;;;;;;;;3.90;99.90;;;;;;5056070;28;19924;-63
2022/01/05 07:58:15;;;;;;;;;;;3.80;99.90;;;;;;5045469;28;19938;-63
2022/01/05 08:00:40;;;;;;;;;;;3.80;99.90;;;;;;5057181;28;20350;-63
2022/01/05 08:03:05;;;;;;;;;;;3.90;99.90;;;;;;5047298;28;19916;-63
2022/01/05 08:05:31;;;;;;;;;;;3.90;99.90;;;;;;5056421;28;19927;-63
2022/01/05 08:07:57;;;;;;;;;;;3.70;99.90;;;;;;5055397;28;19974;-63
2022/01/05 08:10:22;;;;;;;;;;;3.80;99.90;;;;;;5055731;28;19931;-63
2022/01/05 08:12:48;;;;;;;;;;;3.90;99.90;;;;;;5056814;28;19998;-63
2022/01/05 08:15:15;;;;;;;;;;;4.00;99.90;;;;;;5057104;28;19952;-63
2022/01/05 08:17:41;;;;;;;;;;;4.00;99.90;;;;;;5055014;28;19921;-63
2022/01/05 08:20:10;;;;;;;;;;;4.10;99.90;;;;;;5055688;28;19982;-63
2022/01/05 08:22:40;;;;;;;;;;;4.10;99.90;;;;;;5057208;28;20512;-63
2022/01/05 08:25:06;;;;;;;;;;;4.10;99.90;;;;;;5056714;28;20482;-63
2022/01/05 08:27:32;;;;;;;;;;;4.20;99.90;;;;;;5057155;28;20334;-63
2022/01/05 08:30:03;;;;;;;;;;;4.20;99.90;;;;;;5054543;28;19947;-63
2022/01/05 08:32:29;;;;;;;;;;;4.20;99.90;;;;;;5053213;28;19920;-63
2022/01/05 08:34:54;;;;;;;;;;;4.20;99.90;;;;;;5040875;28;19920;-63
2022/01/05 08:37:20;;;;;;;;;;;4.20;99.90;;;;;;5056549;28;19917;-63
2022/01/05 08:39:49;;;;;;;;;;;4.20;99.90;;;;;;5041120;28;19920;-63
2022/01/05 08:42:15;;;;;;;;;;;4.20;99.90;;;;;;5056332;28;20311;-63
2022/01/05 08:44:40;;;;;;;;;;;4.20;99.90;;;;;;5045046;28;19961;-63
2022/01/05 08:47:07;;;;;;;;;;;4.20;99.90;;;;;;5047746;28;20390;-63
2022/01/05 08:49:33;;;;;;;;;;;4.20;99.90;;;;;;5056531;28;19916;-64
2022/01/05 08:51:59;;;;;;;;;;;4.30;99.90;;;;;;5057706;28;20426;-63
2022/01/05 08:54:24;;;;;;;;;;;4.30;99.90;;;;;;5057373;28;19924;-63
2022/01/05 08:56:50;;;;;;;;;;;4.30;99.90;;;;;;5056364;28;20604;-61
2022/01/05 08:59:15;;;;;;;;;;;4.30;99.90;;;;;;5043808;28;20024;-63
2022/01/05 09:01:43;;;;;;;;;;;4.30;99.90;;;;;;5055283;28;19920;-63
2022/01/05 09:04:09;;;;;;;;;;;4.30;99.90;;;;;;5056607;28;19986;-63
2022/01/05 09:06:34;;;;;;;;;;;4.30;99.90;;;;;;5055924;28;20466;-62
2022/01/05 09:09:00;;;;;;;;;;;4.40;99.90;;;;;;5057643;28;19925;-63
2022/01/05 09:11:27;;;;;;;;;;;4.40;99.90;;;;;;5055263;28;20334;-63
2022/01/05 09:13:52;;;;;;;;;;;4.30;99.90;;;;;;5057033;28;20722;-63
2022/01/05 09:16:18;;;;;;;;;;;4.30;99.90;;;;;;5055143;28;20015;-63
2022/01/05 09:18:44;;;;;;;;;;;4.40;99.90;;;;;;5043705;28;20307;-63
2022/01/05 09:21:10;;;;;;;;;;;4.50;99.90;;;;;;5055471;28;20031;-62
2022/01/05 09:23:35;;;;;;;;;;;4.50;99.90;;;;;;5044789;28;20011;-63
2022/01/05 09:26:02;;;;;;;;;;;4.50;99.90;;;;;;5041603;28;19920;-62
2022/01/05 09:28:27;;;;;;;;;;;4.40;99.90;;;;;;5056727;28;19928;-62
2022/01/05 09:30:53;;;;;;;;;;;4.40;99.90;;;;;;5061813;28;19932;-63
2022/01/05 09:33:19;;;;;;;;;;;4.40;99.90;;;;;;5057749;28;19959;-63
2022/01/05 09:35:46;;;;;;;;;;;4.50;99.90;;;;;;5059010;28;19960;-63
2022/01/05 09:38:34;;;;;;;;;;;4.50;99.90;;;;;;5059220;28;19920;-63
2022/01/05 09:43:48;;;;;;;;;;;4.60;99.90;;;;;;5027453;28;20295;-63
2022/01/05 09:46:19;;;;;;;;;;;4.70;99.90;;;;;;5046274;28;19973;-62
2022/01/05 09:48:51;;;;;;;;;;;4.80;99.90;;;;;;5057400;28;19961;-63
2022/01/05 09:51:18;;;;;;;;;;;4.90;99.90;;;;;;5059699;28;20395;-63
2022/01/05 09:53:43;;;;;;;;;;;4.90;99.90;;;;;;5059253;28;20203;-63
2022/01/05 09:56:09;;;;;;;;;;;4.90;99.90;;;;;;5058604;28;19920;-63
2022/01/05 09:58:36;;;;;;;;;;;4.90;99.90;;;;;;5059480;28;19920;-64
2022/01/05 10:01:03;;;;;;;;;;;5.00;99.90;;;;;;5061279;28;19917;-63
2022/01/05 10:03:28;;;;;;;;;;;5.00;99.90;;;;;;5057245;28;20352;-62
2022/01/05 10:05:54;;;;;;;;;;;5.00;99.90;;;;;;5059085;28;19955;-63
2022/01/05 10:08:19;;;;;;;;;;;5.00;99.90;;;;;;5058976;28;19932;-63
2022/01/05 10:10:45;;;;;;;;;;;5.00;99.90;;;;;;5057927;28;19924;-63
2022/01/05 10:13:11;;;;;;;;;;;5.00;99.90;;;;;;5059472;28;19924;-63
2022/01/05 10:15:36;;;;;;;;;;;4.80;99.90;;;;;;5060348;28;19921;-62
2022/01/05 10:18:12;;;;;;;;;;;4.80;99.90;;;;;;5057929;28;19921;-62
2022/01/05 10:20:53;;;;;;;;;;;4.80;99.90;;;;;;5058317;28;20433;-63
2022/01/05 10:23:31;;;;;;;;;;;4.80;99.90;;;;;;5058385;28;19912;-63
2022/01/05 10:26:16;;;;;;;;;;;4.70;99.90;;;;;;5048600;28;19943;-63
2022/01/05 10:28:42;;;;;;;;;;;4.70;99.90;;;;;;5058808;28;19917;-63
2022/01/05 10:31:12;;;;;;;;;;;4.80;99.90;;;;;;5058481;28;19916;-63
2022/01/05 10:33:37;;;;;;;;;;;4.90;99.90;;;;;;5059388;28;19921;-62
2022/01/05 10:36:03;;;;;;;;;;;4.90;99.90;;;;;;5047941;28;19974;-63
2022/01/05 10:38:29;;;;;;;;;;;4.90;99.90;;;;;;5058986;28;19912;-63
2022/01/05 10:40:54;;;;;;;;;;;5.00;99.90;;;;;;5047524;28;19981;-62
2022/01/05 10:43:20;;;;;;;;;;;5.00;99.90;;;;;;5058281;28;20390;-62
2022/01/05 10:45:49;;;;;;;;;;;5.00;99.90;;;;;;5059918;28;20014;-62
2022/01/05 10:48:18;;;;;;;;;;;5.00;99.90;;;;;;5058088;28;19930;-63
2022/01/05 10:50:45;;;;;;;;;;;5.00;99.90;;;;;;5058155;28;20831;-63
2022/01/05 10:53:15;;;;;;;;;;;5.00;99.90;;;;;;5048049;28;19924;-63
2022/01/05 10:55:42;;;;;;;;;;;5.00;99.90;;;;;;5047845;28;19935;-63
2022/01/05 10:58:10;;;;;;;;;;;5.00;99.90;;;;;;5058999;28;20356;-63
2022/01/05 11:00:35;;;;;;;;;;;4.90;99.90;;;;;;5050398;28;20427;-62
2022/01/05 11:03:01;;;;;;;;;;;4.90;99.90;;;;;;5058598;28;20050;-63
2022/01/05 11:05:26;;;;;;;;;;;4.90;99.90;;;;;;5046714;28;19977;-63
2022/01/05 11:08:05;;;;;;;;;;;4.90;99.90;;;;;;5058959;28;19924;-63
2022/01/05 11:10:30;;;;;;;;;;;5.00;99.90;;;;;;5059905;28;19916;-62
2022/01/05 11:12:56;;;;;;;;;;;5.00;99.90;;;;;;5058022;28;20534;-63
2022/01/05 11:15:30;;;;;;;;;;;5.00;99.90;;;;;;5059726;28;20354;-63
2022/01/05 11:18:11;;;;;;;;;;;5.00;99.90;;;;;;5056655;28;20391;-63
2022/01/05 11:20:51;;;;;;;;;;;5.10;99.90;;;;;;5058645;28;19969;-62
2022/01/05 11:23:17;;;;;;;;;;;5.10;99.90;;;;;;5058259;28;19912;-63
2022/01/05 11:25:44;;;;;;;;;;;5.10;99.90;;;;;;5058334;28;19970;-62
2022/01/05 11:28:10;;;;;;;;;;;5.20;99.90;;;;;;5056963;28;19920;-63
2022/01/05 11:30:36;;;;;;;;;;;5.20;99.90;;;;;;5057366;28;19948;-63
2022/01/05 11:33:02;;;;;;;;;;;5.30;99.90;;;;;;5059042;28;19924;-63
2022/01/05 11:35:28;;;;;;;;;;;5.40;99.90;;;;;;5057469;28;19932;-63
2022/01/05 11:37:53;;;;;;;;;;;5.40;99.90;;;;;;5057756;28;19954;-63
2022/01/05 11:40:20;;;;;;;;;;;5.40;99.90;;;;;;5057468;28;19928;-63
2022/01/05 11:42:48;;;;;;;;;;;5.40;99.90;;;;;;5043408;28;20378;-63
2022/01/05 11:45:25;;;;;;;;;;;5.40;99.90;;;;;;5058133;28;19920;-63
2022/01/05 11:47:56;;;;;;;;;;;5.60;99.90;;;;;;5055895;28;19977;-63
2022/01/05 11:50:23;;;;;;;;;;;5.50;99.90;;;;;;5047230;28;19940;-63
2022/01/05 11:53:03;;;;;;;;;;;5.40;99.90;;;;;;5055832;28;20015;-63
2022/01/05 11:55:30;;;;;;;;;;;5.50;99.90;;;;;;5056948;28;19958;-63
2022/01/05 11:58:14;;;;;;;;;;;5.50;99.90;;;;;;5056312;28;19920;-63
2022/01/05 12:00:40;;;;;;;;;;;5.50;99.90;;;;;;5057049;28;20662;-63
2022/01/05 12:03:05;;;;;;;;;;;5.60;99.90;;;;;;5055919;28;20062;-63
2022/01/05 12:05:49;;;;;;;;;;;5.60;99.90;;;;;;5055070;28;19927;-63
2022/01/05 12:08:34;;;;;;;;;;;5.60;99.90;;;;;;5056700;28;19924;-63
2022/01/05 12:11:00;;;;;;;;;;;5.60;99.90;;;;;;5054252;28;19921;-63
2022/01/05 12:13:35;;;;;;;;;;;5.70;99.90;;;;;;5044126;28;19974;-63
2022/01/05 12:16:01;;;;;;;;;;;5.70;99.90;;;;;;5055767;28;19920;-63
2022/01/05 12:18:29;;;;;;;;;;;5.70;99.90;;;;;;5055642;28;19936;-63
2022/01/05 12:20:57;;;;;;;;;;;5.70;99.90;;;;;;5057483;28;19921;-63
2022/01/05 12:23:25;;;;;;;;;;;5.70;99.90;;;;;;5055153;28;19928;-63
2022/01/05 12:26:07;;;;;;;;;;;5.90;99.90;;;;;;5056819;28;19917;-63
2022/01/05 12:28:42;;;;;;;;;;;6.00;99.90;;;;;;5045216;28;19930;-64
2022/01/05 12:31:11;;;;;;;;;;;6.00;99.90;;;;;;5054618;28;20466;-63
2022/01/05 12:33:51;;;;;;;;;;;6.00;99.90;;;;;;5055134;28;20070;-63
2022/01/05 12:36:33;;;;;;;;;;;5.90;99.90;;;;;;5055778;28;20356;-63
2022/01/05 12:38:58;;;;;;;;;;;6.00;99.90;;;;;;5057041;28;19970;-63
2022/01/05 12:41:27;;;;;;;;;;;6.00;99.90;;;;;;5056045;28;19939;-63
2022/01/05 12:43:53;;;;;;;;;;;6.10;99.90;;;;;;5056315;28;19916;-63
2022/01/05 12:46:36;;;;;;;;;;;6.10;99.90;;;;;;5056679;28;20339;-63
2022/01/05 12:49:04;;;;;;;;;;;6.00;99.90;;;;;;5055545;28;19951;-63
2022/01/05 12:51:32;;;;;;;;;;;6.00;99.90;;;;;;5057005;28;19920;-62
2022/01/05 12:54:10;;;;;;;;;;;5.90;99.90;;;;;;5055922;28;19959;-62
2022/01/05 12:56:38;;;;;;;;;;;6.00;99.90;;;;;;5055084;28;20398;-62
2022/01/05 12:59:06;;;;;;;;;;;6.00;99.90;;;;;;5055334;28;20360;-63
2022/01/05 13:01:32;;;;;;;;;;;6.00;99.90;;;;;;5055140;28;19921;-62
2022/01/05 13:03:59;;;;;;;;;;;6.00;99.90;;;;;;5055631;28;19919;-63
2022/01/05 13:06:29;;;;;;;;;;;5.90;99.90;;;;;;5054904;28;19948;-63
2022/01/05 13:08:56;;;;;;;;;;;6.00;99.90;;;;;;5054226;28;20004;-62
2022/01/05 13:11:37;;;;;;;;;;;6.00;99.90;;;;;;5055380;28;20431;-63
2022/01/05 13:14:22;;;;;;;;;;;6.00;99.90;;;;;;5046111;28;19925;-63
2022/01/05 13:16:49;;;;;;;;;;;6.10;99.90;;;;;;5055925;28;20045;-62
2022/01/05 13:19:28;;;;;;;;;;;6.10;99.90;;;;;;5055796;28;19917;-63
2022/01/05 13:21:54;;;;;;;;;;;6.00;99.90;;;;;;5055960;28;20004;-63
2022/01/05 13:24:20;;;;;;;;;;;6.00;99.90;;;;;;5057426;28;19912;-63
2022/01/05 13:26:58;;;;;;;;;;;6.00;99.90;;;;;;5052686;28;19921;-63
2022/01/05 13:29:28;;;;;;;;;;;6.00;99.90;;;;;;5055074;28;19928;-63
2022/01/05 13:32:01;;;;;;;;;;;5.90;99.90;;;;;;5044809;28;19925;-63
2022/01/05 13:34:36;;;;;;;;;;;5.90;99.90;;;;;;5055901;28;20118;-63
2022/01/05 13:37:05;;;;;;;;;;;5.90;99.90;;;;;;5054850;28;20332;-63
2022/01/05 13:39:32;;;;;;;;;;;5.90;99.90;;;;;;5055778;28;20351;-63
2022/01/05 13:41:58;;;;;;;;;;;6.00;99.90;;;;;;5056822;28;20797;-63
2022/01/05 13:44:23;;;;;;;;;;;6.00;99.90;;;;;;5056739;28;19928;-63
2022/01/05 13:46:49;;;;;;;;;;;6.00;99.90;;;;;;5055110;28;20333;-63
2022/01/05 13:49:15;;;;;;;;;;;6.10;99.90;;;;;;5041274;28;19920;-63
2022/01/05 13:51:41;;;;;;;;;;;6.10;99.90;;;;;;5054681;28;19916;-63
2022/01/05 13:54:08;;;;;;;;;;;6.10;99.90;;;;;;5054226;28;19940;-62
2022/01/05 13:56:40;;;;;;;;;;;6.00;99.90;;;;;;5055144;28;19923;-62
2022/01/05 13:59:06;;;;;;;;;;;6.00;99.90;;;;;;5054923;28;19957;-63
2022/01/05 14:01:32;;;;;;;;;;;5.90;99.90;;;;;;5054986;28;19924;-63
2022/01/05 14:04:06;;;;;;;;;;;5.90;99.90;;;;;;5057128;28;20015;-62
2022/01/05 14:06:32;;;;;;;;;;;5.90;99.90;;;;;;5057593;28;20014;-62
2022/01/05 14:08:59;;;;;;;;;;;5.80;99.90;;;;;;5056133;28;20403;-63
2022/01/05 14:11:25;;;;;;;;;;;5.90;99.90;;;;;;5042373;28;20363;-63
2022/01/05 14:13:51;;;;;;;;;;;6.00;99.90;;;;;;5052292;28;19920;-63
2022/01/05 14:16:29;;;;;;;;;;;5.90;99.90;;;;;;5057004;28;20019;-63
2022/01/05 14:18:57;;;;;;;;;;;5.90;99.90;;;;;;5056385;28;20375;-62
2022/01/05 14:21:30;;;;;;;;;;;5.90;99.90;;;;;;5058931;28;20814;-63
2022/01/05 14:23:55;;;;;;;;;;;6.00;99.90;;;;;;5058453;28;19993;-63
2022/01/05 14:26:25;;;;;;;;;;;6.00;99.90;;;;;;5058824;28;20560;-63
2022/01/05 14:28:50;;;;;;;;;;;6.00;99.90;;;;;;5057722;28;19928;-63
2022/01/05 14:31:17;;;;;;;;;;;6.00;99.90;;;;;;5059194;28;20830;-63
2022/01/05 14:33:53;;;;;;;;;;;6.00;99.90;;;;;;5059236;28;19920;-63